createdAt,value
2023-12-21T02:03:56.749Z,21.50
2023-12-21T02:06:24.349Z,21.73
2023-12-21T02:09:44.048Z,22.30
2023-12-21T02:12:48.799Z,20.08
2023-12-21T02:15:52.956Z,21.17
2023-12-21T02:18:48.951Z,20.25
2023-12-21T02:25:11.456Z,22.50
2023-12-21T02:28:07.315Z,21.20
2023-12-21T02:31:18.312Z,20.23
2023-12-21T02:34:13.757Z,20.67
2023-12-21T02:37:42.609Z,18.90
2023-12-21T02:41:05.940Z,20.15
2023-12-21T02:43:57.431Z,18.50
2023-12-21T02:47:03.961Z,19.42
2023-12-21T02:50:03.800Z,19.10
2023-12-21T02:52:32.252Z,18.30
2023-12-21T02:55:00.097Z,18.92
2023-12-21T02:57:29.201Z,18.77
2023-12-21T02:59:57.742Z,17.95
2023-12-21T03:02:25.135Z,18.27
2023-12-21T03:04:52.510Z,19.55
2023-12-21T03:07:21.342Z,18.30
2023-12-21T03:09:48.513Z,19.60
2023-12-21T03:12:19.104Z,18.13
2023-12-21T03:14:47.780Z,19.98
2023-12-21T03:17:16.096Z,19.63
2023-12-21T03:19:43.198Z,22.00
2023-12-21T03:22:10.871Z,19.80
2023-12-21T03:24:39.566Z,18.30
2023-12-21T03:27:06.930Z,19.33
2023-12-21T03:29:33.890Z,20.08
2023-12-21T03:32:03.685Z,19.55
2023-12-21T03:34:31.055Z,18.27
2023-12-21T03:37:34.875Z,19.58
2023-12-21T03:43:40.794Z,18.67
2023-12-21T03:49:54.991Z,16.65
2023-12-21T03:52:27.406Z,17.55
2023-12-21T03:55:00.358Z,17.27
2023-12-21T03:57:33.645Z,18.23
2023-12-21T04:17:36.887Z,18.92
2023-12-21T04:20:04.800Z,17.20
2023-12-21T04:22:32.074Z,16.35
2023-12-21T04:24:59.025Z,16.17
2023-12-21T04:27:27.270Z,16.80
2023-12-21T04:29:58.364Z,17.55
2023-12-21T04:32:25.664Z,15.48
2023-12-21T04:34:53.225Z,14.85
2023-12-21T04:37:46.703Z,16.08
2023-12-21T04:40:21.015Z,15.57
2023-12-21T04:42:56.886Z,14.52
2023-12-21T04:45:24.358Z,14.07
2023-12-21T04:47:52.701Z,14.48
2023-12-21T04:50:37.266Z,15.65
2023-12-21T04:53:12.660Z,14.18
2023-12-21T04:55:39.983Z,13.65
2023-12-21T04:58:13.281Z,13.70
2023-12-21T05:00:41.845Z,14.52
2023-12-21T05:03:22.231Z,19.55
2023-12-21T05:05:53.441Z,21.98
2023-12-21T05:08:40.661Z,17.55
2023-12-21T05:43:57.138Z,13.75
2023-12-21T05:46:25.008Z,15.23
2023-12-21T05:49:09.290Z,16.08
2023-12-21T05:51:36.619Z,15.38
2023-12-21T05:54:10.001Z,14.57
2023-12-21T05:59:08.374Z,13.20
2023-12-21T06:01:36.045Z,13.60
2023-12-21T06:04:53.572Z,14.73
2023-12-21T06:07:21.298Z,13.40
2023-12-21T06:12:24.353Z,14.55
2023-12-21T07:06:52.774Z,32.38
2023-12-21T07:09:21.508Z,31.20
2023-12-21T07:11:49.514Z,35.03
2023-12-21T07:14:17.301Z,37.67
2023-12-21T07:16:44.297Z,37.53
2023-12-21T07:19:11.385Z,34.25
2023-12-21T07:21:38.939Z,33.20
2023-12-21T07:24:06.492Z,30.90
2023-12-21T07:26:34.696Z,30.60
2023-12-21T07:29:02.905Z,28.50
2023-12-21T07:31:29.931Z,26.85
2023-12-21T07:34:01.169Z,28.55
2023-12-21T07:36:32.621Z,27.33
2023-12-21T07:41:46.686Z,29.37
2023-12-21T07:44:15.975Z,25.15
2023-12-21T07:46:43.073Z,74.82
2023-12-21T07:49:12.770Z,23.00
2023-12-21T07:51:50.026Z,20.63
2023-12-21T07:54:17.145Z,20.83
2023-12-21T07:56:45.329Z,23.60
2023-12-21T07:59:13.417Z,26.65
2023-12-21T08:01:57.144Z,28.08
2023-12-21T08:04:24.630Z,36.22
2023-12-21T08:06:59.375Z,39.60
2023-12-21T08:09:26.702Z,38.38
2023-12-21T08:11:54.929Z,40.88
2023-12-21T08:14:32.467Z,43.05
2023-12-21T08:17:11.753Z,38.65
2023-12-21T08:19:56.974Z,38.10
2023-12-21T08:22:25.497Z,31.00
2023-12-21T08:24:55.997Z,27.17
2023-12-21T08:27:25.613Z,22.27
2023-12-21T08:29:58.874Z,21.17
2023-12-21T08:32:36.943Z,21.33
2023-12-21T08:35:06.390Z,20.23
2023-12-21T08:37:35.959Z,19.63
2023-12-21T08:40:07.915Z,20.48
2023-12-21T08:42:35.143Z,21.17
2023-12-21T08:45:06.819Z,21.48
2023-12-21T08:47:42.888Z,41.65
2023-12-21T08:50:21.191Z,37.65
2023-12-21T08:53:19.613Z,31.20
2023-12-21T08:55:52.951Z,29.08
2023-12-21T08:58:20.286Z,35.28
2023-12-21T09:00:47.647Z,36.40
2023-12-21T09:03:14.665Z,34.03
2023-12-21T09:05:41.839Z,32.45
2023-12-21T09:08:08.929Z,28.40
2023-12-21T09:10:41.962Z,29.00
2023-12-21T09:13:09.241Z,31.70
2023-12-21T09:15:38.996Z,28.35
2023-12-21T09:18:09.339Z,8.60
2023-12-21T09:20:38.698Z,7.15
2023-12-21T09:23:16.870Z,6.35
2023-12-21T09:25:52.298Z,6.60
2023-12-21T09:28:48.040Z,4.45
2023-12-21T09:31:16.341Z,5.60
2023-12-21T09:33:46.570Z,6.78
2023-12-21T09:36:20.542Z,10.68
2023-12-21T09:39:04.862Z,11.75
2023-12-21T09:41:32.346Z,7.97
2023-12-21T09:44:28.107Z,10.82
2023-12-21T09:47:08.497Z,10.55
2023-12-21T09:49:43.004Z,10.70
2023-12-21T09:52:14.450Z,8.05
2023-12-21T09:54:51.375Z,8.23
2023-12-21T09:57:22.960Z,5.10
2023-12-21T09:59:58.482Z,5.43
2023-12-21T10:02:29.433Z,6.05
2023-12-21T10:05:06.903Z,7.80
2023-12-21T10:07:47.433Z,8.95
2023-12-21T10:10:23.168Z,7.80
2023-12-21T10:12:51.016Z,9.53
2023-12-21T10:15:29.043Z,9.57
2023-12-21T10:18:07.292Z,5.15
2023-12-21T10:20:34.547Z,3.72
2023-12-21T10:23:02.393Z,3.20
2023-12-21T10:25:38.994Z,3.88
2023-12-21T10:28:06.345Z,4.97
2023-12-21T10:30:35.876Z,5.55
2023-12-21T10:33:03.958Z,2.10
2023-12-21T10:35:32.771Z,2.42
2023-12-21T10:38:03.532Z,2.15
2023-12-21T10:40:30.939Z,2.50
2023-12-21T10:42:58.125Z,2.10
2023-12-21T10:45:35.550Z,2.03
2023-12-21T10:48:21.042Z,2.15
2023-12-21T10:50:51.509Z,1.80
2023-12-21T10:53:20.716Z,2.10
2023-12-21T10:56:01.544Z,2.28
2023-12-21T10:58:37.244Z,2.45
2023-12-21T11:01:24.530Z,2.63
2023-12-21T11:04:01.143Z,2.70
2023-12-21T11:06:44.917Z,2.80
2023-12-21T11:09:14.693Z,3.92
2023-12-21T11:11:49.472Z,2.25
2023-12-21T11:29:29.221Z,4.78
2023-12-21T11:31:58.057Z,4.80
2023-12-21T11:34:37.019Z,4.43
2023-12-21T11:37:22.460Z,5.93
2023-12-21T11:39:55.083Z,5.53
2023-12-21T11:42:33.172Z,5.90
2023-12-21T11:45:03.862Z,4.15
2023-12-21T11:47:34.676Z,4.40
2023-12-21T11:50:12.417Z,4.53
2023-12-21T11:55:07.840Z,4.10
2023-12-21T12:04:34.967Z,5.15
2023-12-21T12:07:05.201Z,5.45
2023-12-21T12:09:32.222Z,5.13
2023-12-21T12:12:00.449Z,4.57
2023-12-21T12:14:28.180Z,3.83
2023-12-21T12:16:56.530Z,3.63
2023-12-21T13:27:00.814Z,13.05
2023-12-21T13:29:29.105Z,4.97
2023-12-21T13:32:19.459Z,5.25
2023-12-21T13:34:47.265Z,5.05
2023-12-21T13:37:14.412Z,5.13
2023-12-21T13:39:41.805Z,4.80
2023-12-21T13:42:10.200Z,4.85
2023-12-21T13:44:37.690Z,5.10
2023-12-21T13:47:06.111Z,4.13
2023-12-21T13:49:33.576Z,4.53
2023-12-21T13:52:00.804Z,5.00
2023-12-21T13:54:28.024Z,5.65
2023-12-21T13:57:04.297Z,6.15
2023-12-21T13:59:38.554Z,5.53
2023-12-21T14:02:06.141Z,5.53
2023-12-21T14:04:33.772Z,4.72
2023-12-21T14:07:01.095Z,5.72
2023-12-21T14:09:28.468Z,4.28
2023-12-21T14:11:55.508Z,4.95
2023-12-21T14:14:22.936Z,4.47
2023-12-21T14:16:50.233Z,5.97
2023-12-21T14:19:17.697Z,8.05
2023-12-21T14:21:45.361Z,7.47
2023-12-21T14:24:16.372Z,7.20
2023-12-21T14:26:43.474Z,7.85
2023-12-21T14:29:10.669Z,7.20
2023-12-21T14:31:37.756Z,7.55
2023-12-21T14:34:05.048Z,9.43
2023-12-21T14:36:32.154Z,9.50
2023-12-21T14:38:59.688Z,10.02
2023-12-21T14:41:27.017Z,10.38
2023-12-21T14:43:54.577Z,9.40
2023-12-21T14:46:21.934Z,10.88
2023-12-21T14:49:08.876Z,11.15
2023-12-21T14:51:43.663Z,11.80
2023-12-21T14:54:10.999Z,12.95
2023-12-21T14:56:38.552Z,14.52
2023-12-21T14:59:07.239Z,15.80
2023-12-21T15:01:35.336Z,18.63
2023-12-21T15:04:03.977Z,18.23
2023-12-21T15:06:36.074Z,18.73
2023-12-21T15:09:04.523Z,20.67
2023-12-21T15:11:33.262Z,32.80
2023-12-21T15:14:00.934Z,29.85
2023-12-21T15:16:30.242Z,31.90
2023-12-21T15:18:57.427Z,37.03
2023-12-21T15:21:24.662Z,39.15
2023-12-21T15:23:51.952Z,44.40
2023-12-21T15:26:18.983Z,45.83
2023-12-21T15:28:46.103Z,44.47
2023-12-21T15:31:13.379Z,45.08
2023-12-21T15:33:40.393Z,42.40
2023-12-21T15:36:08.803Z,43.88
2023-12-21T15:38:36.041Z,40.05
2023-12-21T15:41:03.365Z,31.00
2023-12-21T15:43:35.417Z,33.83
2023-12-21T15:46:02.590Z,32.63
2023-12-21T15:48:29.727Z,28.75
2023-12-21T15:50:56.779Z,25.77
2023-12-21T15:53:23.840Z,24.92
2023-12-21T15:55:50.950Z,27.30
2023-12-21T15:58:19.448Z,29.75
2023-12-21T16:00:47.730Z,27.98
2023-12-21T16:03:14.795Z,27.52
2023-12-21T16:05:42.538Z,26.85
2023-12-21T16:08:10.988Z,28.75
2023-12-21T16:10:38.298Z,29.40
2023-12-21T16:13:08.101Z,27.50
2023-12-21T16:15:35.346Z,26.33
2023-12-21T16:18:03.050Z,27.90
2023-12-21T16:20:30.256Z,25.35
2023-12-21T16:22:57.889Z,26.77
2023-12-21T16:25:25.687Z,26.75
2023-12-21T16:27:52.941Z,26.45
2023-12-21T16:30:21.094Z,27.88
2023-12-21T16:32:51.858Z,30.05
2023-12-21T16:35:19.096Z,30.35
2023-12-21T16:37:48.492Z,31.20
2023-12-21T16:40:18.030Z,30.70
2023-12-21T16:42:45.477Z,29.25
2023-12-21T16:45:13.582Z,28.85
2023-12-21T16:47:40.760Z,30.55
2023-12-21T16:50:08.772Z,31.02
2023-12-21T16:52:36.749Z,30.67
2023-12-21T16:55:04.391Z,30.33
2023-12-21T16:57:31.989Z,30.15
2023-12-21T16:59:59.049Z,30.35
2023-12-21T17:02:26.088Z,42.22
2023-12-21T17:04:54.800Z,39.22
2023-12-21T17:07:22.372Z,38.65
2023-12-21T17:09:49.760Z,35.30
2023-12-21T17:12:16.888Z,39.83
2023-12-21T17:14:43.946Z,55.63
2023-12-21T17:17:10.958Z,79.70
2023-12-21T17:19:38.468Z,83.43
2023-12-21T17:22:08.192Z,85.20
2023-12-21T17:24:37.902Z,90.10
2023-12-21T17:27:05.537Z,90.18
2023-12-21T17:29:33.054Z,89.63
2023-12-21T17:32:00.827Z,87.97
2023-12-21T17:34:28.143Z,72.78
2023-12-21T17:36:55.959Z,72.65
2023-12-21T17:39:24.784Z,85.53
2023-12-21T17:41:51.952Z,57.72
2023-12-21T17:44:19.671Z,71.32
2023-12-21T17:46:47.074Z,72.18
2023-12-21T17:49:14.861Z,61.22
2023-12-21T17:51:42.874Z,74.70
2023-12-21T17:54:09.951Z,77.20
2023-12-21T17:56:36.947Z,89.45
2023-12-21T17:59:06.298Z,96.13
2023-12-21T18:01:33.980Z,95.60
2023-12-21T18:04:01.247Z,103.93
2023-12-21T18:06:28.211Z,98.53
2023-12-21T18:08:55.463Z,73.32
2023-12-21T18:11:22.854Z,75.15
2023-12-21T18:13:50.024Z,74.55
2023-12-21T18:16:18.222Z,66.28
2023-12-21T18:18:45.392Z,60.40
2023-12-21T18:21:15.499Z,57.60
2023-12-21T18:23:42.495Z,54.65
2023-12-21T18:26:10.581Z,55.83
2023-12-21T18:28:38.563Z,50.83
2023-12-21T18:31:05.796Z,57.63
2023-12-21T18:33:33.525Z,63.25
2023-12-21T18:36:00.562Z,68.60
2023-12-21T18:38:29.440Z,67.38
2023-12-21T18:40:56.705Z,67.20
2023-12-21T18:43:23.837Z,62.47
2023-12-21T18:45:53.591Z,55.70
2023-12-21T18:48:20.869Z,72.05
2023-12-21T18:50:48.138Z,75.18
2023-12-21T18:53:15.875Z,80.32
2023-12-21T18:55:43.971Z,84.13
2023-12-21T18:58:17.794Z,84.30
2023-12-21T19:00:45.214Z,62.00
2023-12-21T19:03:12.696Z,59.50
2023-12-21T19:05:40.117Z,57.35
2023-12-21T19:08:10.429Z,57.22
2023-12-21T19:10:37.480Z,52.65
2023-12-21T19:13:05.455Z,43.88
2023-12-21T19:15:32.428Z,46.47
2023-12-21T19:17:59.477Z,44.55
2023-12-21T19:20:26.850Z,44.60
2023-12-21T19:22:53.998Z,46.40
2023-12-21T19:25:21.157Z,48.08
2023-12-21T19:27:49.084Z,39.53
2023-12-21T19:30:17.219Z,39.85
2023-12-21T19:32:44.260Z,39.47
2023-12-21T19:35:11.385Z,34.08
2023-12-21T19:37:38.443Z,35.88
2023-12-21T19:40:06.016Z,35.22
2023-12-21T19:42:33.416Z,40.70
2023-12-21T19:45:00.434Z,38.13
2023-12-21T19:47:27.690Z,37.20
2023-12-21T19:49:54.983Z,34.38
2023-12-21T19:52:22.597Z,32.22
2023-12-21T19:54:50.744Z,32.92
2023-12-21T19:57:18.037Z,33.70
2023-12-21T19:59:48.293Z,37.70
2023-12-21T20:05:22.103Z,25.53
2023-12-21T20:08:54.926Z,27.48
2023-12-21T20:11:21.944Z,32.67
2023-12-21T20:14:04.341Z,33.40
2023-12-21T20:16:35.382Z,29.55
2023-12-21T20:19:04.192Z,31.90
2023-12-21T20:29:09.965Z,26.80
2023-12-21T20:31:40.117Z,25.70
2023-12-21T20:34:14.374Z,25.63
2023-12-21T20:36:48.743Z,24.08
2023-12-21T20:39:15.798Z,24.60
2023-12-21T20:41:43.133Z,24.27
2023-12-21T20:44:10.657Z,23.08
2023-12-21T20:46:38.018Z,25.27
2023-12-21T20:49:05.143Z,23.73
2023-12-21T20:51:55.428Z,22.73
2023-12-21T20:54:22.704Z,24.58
2023-12-21T20:56:49.795Z,26.52
2023-12-21T20:59:25.010Z,28.30
2023-12-21T21:01:54.835Z,25.70
2023-12-21T21:04:26.318Z,27.25
2023-12-21T21:06:58.655Z,27.52
2023-12-21T21:09:27.026Z,28.30
2023-12-21T21:11:54.041Z,27.17
2023-12-21T21:14:23.445Z,26.55
2023-12-21T21:16:54.545Z,25.15
2023-12-21T21:19:24.186Z,24.00
2023-12-21T21:21:52.182Z,24.52
2023-12-21T21:24:19.505Z,24.00
2023-12-21T21:26:46.638Z,26.90
2023-12-21T21:29:15.494Z,30.92
2023-12-21T21:31:44.727Z,28.67
2023-12-21T21:34:12.574Z,30.35
2023-12-21T21:36:43.842Z,28.42
2023-12-21T21:39:11.378Z,29.70
2023-12-21T21:41:38.909Z,30.17
2023-12-21T21:44:06.136Z,34.53
2023-12-21T21:46:33.471Z,34.92
2023-12-21T21:49:01.397Z,38.00
2023-12-21T21:51:28.722Z,39.63
2023-12-21T21:53:55.742Z,40.70
2023-12-21T21:56:23.128Z,40.00
2023-12-21T21:58:50.294Z,40.05
2023-12-21T22:01:20.772Z,39.58
2023-12-21T22:03:49.740Z,40.10
2023-12-21T22:06:19.100Z,42.38
2023-12-21T22:08:55.923Z,44.50
2023-12-21T22:11:30.070Z,41.97
2023-12-21T22:14:12.336Z,37.67
2023-12-21T22:16:42.784Z,37.35
2023-12-21T22:19:10.246Z,35.25
2023-12-21T22:21:37.249Z,36.42
2023-12-21T22:24:05.809Z,34.70
2023-12-21T22:26:33.433Z,32.45
2023-12-21T22:29:00.824Z,29.50
2023-12-21T22:31:32.434Z,24.58
2023-12-21T22:33:59.610Z,20.55
2023-12-21T22:36:27.055Z,17.90
2023-12-21T22:38:58.315Z,15.75
2023-12-21T22:41:26.562Z,15.88
2023-12-21T22:43:54.933Z,15.00
2023-12-21T22:46:24.562Z,14.90
2023-12-21T22:48:52.361Z,14.80
2023-12-21T22:51:23.579Z,14.38
2023-12-21T22:53:58.928Z,13.93
2023-12-21T22:56:27.073Z,13.15
2023-12-21T22:58:54.171Z,13.63
2023-12-21T23:01:21.323Z,14.25
2023-12-21T23:03:48.613Z,14.32
2023-12-21T23:06:23.013Z,13.05
2023-12-21T23:08:50.162Z,13.27
2023-12-21T23:11:17.766Z,13.40
2023-12-21T23:13:45.000Z,12.38
2023-12-21T23:16:12.434Z,11.43
2023-12-21T23:18:40.593Z,10.98
2023-12-21T23:21:18.520Z,10.88
2023-12-21T23:23:49.829Z,10.30
2023-12-21T23:26:26.122Z,10.10
2023-12-21T23:28:55.211Z,10.23
2023-12-21T23:31:24.582Z,11.80
2023-12-21T23:33:58.132Z,10.52
2023-12-21T23:36:28.130Z,10.18
2023-12-21T23:39:05.200Z,11.82
2023-12-21T23:41:36.546Z,11.55
2023-12-21T23:44:08.058Z,11.10
2023-12-21T23:46:41.376Z,11.68
2023-12-21T23:49:16.218Z,10.98
2023-12-21T23:51:43.805Z,12.05
2023-12-21T23:54:23.299Z,12.23
2023-12-21T23:56:56.529Z,11.88
2023-12-21T23:59:25.556Z,11.90
